sensor_id;sensor_type;location;lat;lon;timestamp;pressure;altitude;pressure_sealevel;temperature;humidity
36748;BME280;22716;51.556;5.080;2023-08-17T00:00:03;101287.88;;;19.89;100.00
36748;BME280;22716;51.556;5.080;2023-08-17T00:02:34;101291.19;;;19.94;100.00
36748;BME280;22716;51.556;5.080;2023-08-17T00:05:05;101285.09;;;19.92;100.00
36748;BME280;22716;51.556;5.080;2023-08-17T00:07:34;101295.84;;;19.89;100.00
36748;BME280;22716;51.556;5.080;2023-08-17T00:10:04;101289.88;;;19.84;100.00
36748;BME280;22716;51.556;5.080;2023-08-17T00:12:32;101291.13;;;19.75;100.00
36748;BME280;22716;51.556;5.080;2023-08-17T00:15:01;101288.50;;;19.74;100.00
36748;BME280;22716;51.556;5.080;2023-08-17T00:17:30;101287.19;;;19.64;100.00
36748;BME280;22716;51.556;5.080;2023-08-17T00:19:59;101287.22;;;19.62;100.00
36748;BME280;22716;51.556;5.080;2023-08-17T00:22:33;101275.53;;;19.66;100.00
36748;BME280;22716;51.556;5.080;2023-08-17T00:25:01;101288.00;;;19.64;100.00
36748;BME280;22716;51.556;5.080;2023-08-17T00:27:32;101278.56;;;19.57;100.00
36748;BME280;22716;51.556;5.080;2023-08-17T00:30:00;101282.16;;;19.56;100.00
36748;BME280;22716;51.556;5.080;2023-08-17T00:32:29;101296.34;;;19.55;100.00
36748;BME280;22716;51.556;5.080;2023-08-17T00:34:58;101295.63;;;19.51;100.00
36748;BME280;22716;51.556;5.080;2023-08-17T00:37:26;101290.19;;;19.54;100.00
36748;BME280;22716;51.556;5.080;2023-08-17T00:39:58;101297.06;;;19.60;100.00
36748;BME280;22716;51.556;5.080;2023-08-17T00:42:26;101291.13;;;19.53;100.00
36748;BME280;22716;51.556;5.080;2023-08-17T00:44:55;101287.53;;;19.54;100.00
36748;BME280;22716;51.556;5.080;2023-08-17T00:47:24;101299.00;;;19.55;100.00
36748;BME280;22716;51.556;5.080;2023-08-17T00:49:53;101296.69;;;19.47;100.00
36748;BME280;22716;51.556;5.080;2023-08-17T00:52:23;101291.38;;;19.47;100.00
36748;BME280;22716;51.556;5.080;2023-08-17T00:54:51;101294.94;;;19.46;100.00
36748;BME280;22716;51.556;5.080;2023-08-17T00:57:23;101300.38;;;19.43;100.00
36748;BME280;22716;51.556;5.080;2023-08-17T00:59:51;101298.78;;;19.39;100.00
36748;BME280;22716;51.556;5.080;2023-08-17T01:02:20;101296.13;;;19.39;100.00
36748;BME280;22716;51.556;5.080;2023-08-17T01:04:50;101288.47;;;19.30;100.00
36748;BME280;22716;51.556;5.080;2023-08-17T01:07:18;101297.44;;;19.28;100.00
36748;BME280;22716;51.556;5.080;2023-08-17T01:09:47;101296.38;;;19.32;100.00
36748;BME280;22716;51.556;5.080;2023-08-17T01:12:22;101285.75;;;19.32;100.00
36748;BME280;22716;51.556;5.080;2023-08-17T01:15:01;101283.03;;;19.33;100.00
36748;BME280;22716;51.556;5.080;2023-08-17T01:17:35;101288.34;;;19.33;100.00
36748;BME280;22716;51.556;5.080;2023-08-17T01:20:06;101285.03;;;19.28;100.00
36748;BME280;22716;51.556;5.080;2023-08-17T01:22:40;101280.56;;;19.29;100.00
36748;BME280;22716;51.556;5.080;2023-08-17T01:25:12;101269.44;;;19.19;100.00
36748;BME280;22716;51.556;5.080;2023-08-17T01:27:45;101289.63;;;19.23;100.00
36748;BME280;22716;51.556;5.080;2023-08-17T01:30:15;101283.53;;;19.21;100.00
36748;BME280;22716;51.556;5.080;2023-08-17T01:32:49;101283.59;;;19.20;100.00
36748;BME280;22716;51.556;5.080;2023-08-17T01:35:26;101282.03;;;19.14;100.00
36748;BME280;22716;51.556;5.080;2023-08-17T01:37:59;101275.13;;;19.10;100.00
36748;BME280;22716;51.556;5.080;2023-08-17T01:40:34;101230.16;;;18.82;100.00
36748;BME280;22716;51.556;5.080;2023-08-17T01:43:03;101278.44;;;19.15;100.00
36748;BME280;22716;51.556;5.080;2023-08-17T01:45:32;101274.13;;;19.13;100.00
36748;BME280;22716;51.556;5.080;2023-08-17T01:48:00;101279.38;;;19.14;100.00
36748;BME280;22716;51.556;5.080;2023-08-17T01:50:29;101280.34;;;19.12;100.00
36748;BME280;22716;51.556;5.080;2023-08-17T01:52:58;101267.91;;;19.14;100.00
36748;BME280;22716;51.556;5.080;2023-08-17T01:55:26;101273.00;;;19.18;100.00
36748;BME280;22716;51.556;5.080;2023-08-17T01:57:58;101282.72;;;19.19;100.00
36748;BME280;22716;51.556;5.080;2023-08-17T02:00:26;101273.13;;;19.15;100.00
36748;BME280;22716;51.556;5.080;2023-08-17T02:02:55;101271.28;;;19.17;100.00
36748;BME280;22716;51.556;5.080;2023-08-17T02:05:23;101266.28;;;19.10;100.00
36748;BME280;22716;51.556;5.080;2023-08-17T02:07:53;101268.19;;;19.06;100.00
36748;BME280;22716;51.556;5.080;2023-08-17T02:10:22;101275.13;;;19.10;100.00
36748;BME280;22716;51.556;5.080;2023-08-17T02:12:50;101276.91;;;19.10;100.00
36748;BME280;22716;51.556;5.080;2023-08-17T02:15:22;101268.72;;;19.14;100.00
36748;BME280;22716;51.556;5.080;2023-08-17T02:17:50;101281.78;;;19.20;100.00
36748;BME280;22716;51.556;5.080;2023-08-17T02:20:19;101281.28;;;19.11;100.00
36748;BME280;22716;51.556;5.080;2023-08-17T02:22:47;101277.69;;;19.12;100.00
36748;BME280;22716;51.556;5.080;2023-08-17T02:25:16;101279.47;;;19.11;100.00
36748;BME280;22716;51.556;5.080;2023-08-17T02:27:44;101274.72;;;18.97;100.00
36748;BME280;22716;51.556;5.080;2023-08-17T02:30:13;101265.19;;;18.92;100.00
36748;BME280;22716;51.556;5.080;2023-08-17T02:32:44;101272.00;;;18.99;100.00
36748;BME280;22716;51.556;5.080;2023-08-17T02:35:13;101271.06;;;19.00;100.00
36748;BME280;22716;51.556;5.080;2023-08-17T02:37:41;101264.72;;;19.04;100.00
36748;BME280;22716;51.556;5.080;2023-08-17T02:40:11;101268.28;;;19.03;100.00
36748;BME280;22716;51.556;5.080;2023-08-17T02:42:39;101261.38;;;18.99;100.00
36748;BME280;22716;51.556;5.080;2023-08-17T02:45:09;101251.97;;;18.90;100.00
36748;BME280;22716;51.556;5.080;2023-08-17T02:47:38;101266.81;;;18.96;100.00
36748;BME280;22716;51.556;5.080;2023-08-17T02:50:09;101267.88;;;18.90;100.00
36748;BME280;22716;51.556;5.080;2023-08-17T02:52:39;101275.00;;;18.90;100.00
36748;BME280;22716;51.556;5.080;2023-08-17T02:55:08;101269.09;;;18.82;100.00
36748;BME280;22716;51.556;5.080;2023-08-17T02:57:36;101269.94;;;18.84;100.00
36748;BME280;22716;51.556;5.080;2023-08-17T03:00:06;101267.28;;;18.84;100.00
36748;BME280;22716;51.556;5.080;2023-08-17T03:02:35;101273.38;;;18.86;100.00
36748;BME280;22716;51.556;5.080;2023-08-17T03:05:04;101269.97;;;18.82;100.00
36748;BME280;22716;51.556;5.080;2023-08-17T03:07:35;101270.19;;;18.76;100.00
36748;BME280;22716;51.556;5.080;2023-08-17T03:10:05;101266.06;;;18.69;100.00
36748;BME280;22716;51.556;5.080;2023-08-17T03:12:34;101267.50;;;18.78;100.00
36748;BME280;22716;51.556;5.080;2023-08-17T03:15:04;101261.31;;;18.77;100.00
36748;BME280;22716;51.556;5.080;2023-08-17T03:17:32;101261.50;;;18.73;100.00
36748;BME280;22716;51.556;5.080;2023-08-17T03:20:01;101251.91;;;18.69;100.00
36748;BME280;22716;51.556;5.080;2023-08-17T03:22:34;101245.09;;;18.62;100.00
36748;BME280;22716;51.556;5.080;2023-08-17T03:25:04;101242.50;;;18.60;100.00
36748;BME280;22716;51.556;5.080;2023-08-17T03:27:33;101247.63;;;18.65;100.00
36748;BME280;22716;51.556;5.080;2023-08-17T03:30:02;101255.50;;;18.68;100.00
36748;BME280;22716;51.556;5.080;2023-08-17T03:32:31;101246.75;;;18.64;100.00
36748;BME280;22716;51.556;5.080;2023-08-17T03:34:59;101258.97;;;18.70;100.00
36748;BME280;22716;51.556;5.080;2023-08-17T03:37:28;101256.34;;;18.68;100.00
36748;BME280;22716;51.556;5.080;2023-08-17T03:39:59;101258.31;;;18.63;100.00
36748;BME280;22716;51.556;5.080;2023-08-17T03:42:28;101255.91;;;18.57;100.00
36748;BME280;22716;51.556;5.080;2023-08-17T03:44:57;101257.69;;;18.57;100.00
36748;BME280;22716;51.556;5.080;2023-08-17T03:47:25;101254.38;;;18.50;100.00
36748;BME280;22716;51.556;5.080;2023-08-17T03:49:54;101254.38;;;18.50;100.00
36748;BME280;22716;51.556;5.080;2023-08-17T03:52:23;101257.09;;;18.49;100.00
36748;BME280;22716;51.556;5.080;2023-08-17T03:54:51;101261.66;;;18.43;100.00
36748;BME280;22716;51.556;5.080;2023-08-17T03:57:22;101263.41;;;18.44;100.00
36748;BME280;22716;51.556;5.080;2023-08-17T03:59:51;101255.66;;;18.38;100.00
36748;BME280;22716;51.556;5.080;2023-08-17T04:02:19;101253.97;;;18.36;100.00
36748;BME280;22716;51.556;5.080;2023-08-17T04:04:48;101267.22;;;18.37;100.00
36748;BME280;22716;51.556;5.080;2023-08-17T04:07:20;101241.84;;;18.29;100.00
36748;BME280;22716;51.556;5.080;2023-08-17T04:09:49;101257.53;;;18.35;100.00
36748;BME280;22716;51.556;5.080;2023-08-17T04:12:18;101268.91;;;18.38;100.00
36748;BME280;22716;51.556;5.080;2023-08-17T04:14:49;101265.59;;;18.32;100.00
36748;BME280;22716;51.556;5.080;2023-08-17T04:17:18;101277.72;;;18.40;100.00
36748;BME280;22716;51.556;5.080;2023-08-17T04:19:47;101270.78;;;18.36;100.00
36748;BME280;22716;51.556;5.080;2023-08-17T04:22:15;101276.97;;;18.35;100.00
36748;BME280;22716;51.556;5.080;2023-08-17T04:24:44;101273.53;;;18.33;100.00
36748;BME280;22716;51.556;5.080;2023-08-17T04:27:12;101251.22;;;18.14;100.00
36748;BME280;22716;51.556;5.080;2023-08-17T04:29:41;101266.06;;;18.20;100.00
36748;BME280;22716;51.556;5.080;2023-08-17T04:32:16;101266.31;;;18.12;100.00
36748;BME280;22716;51.556;5.080;2023-08-17T04:34:45;101269.78;;;18.14;100.00
36748;BME280;22716;51.556;5.080;2023-08-17T04:37:14;101275.25;;;18.10;100.00
36748;BME280;22716;51.556;5.080;2023-08-17T04:39:43;101275.19;;;18.11;100.00
36748;BME280;22716;51.556;5.080;2023-08-17T04:42:14;101275.06;;;18.14;100.00
36748;BME280;22716;51.556;5.080;2023-08-17T04:44:43;101276.06;;;18.12;100.00
36748;BME280;22716;51.556;5.080;2023-08-17T04:47:11;101277.03;;;18.09;100.00
36748;BME280;22716;51.556;5.080;2023-08-17T04:49:42;101273.47;;;18.10;100.00
36748;BME280;22716;51.556;5.080;2023-08-17T04:52:11;101270.81;;;18.10;100.00
36748;BME280;22716;51.556;5.080;2023-08-17T04:54:39;101259.53;;;18.05;100.00
36748;BME280;22716;51.556;5.080;2023-08-17T04:57:08;101272.72;;;18.07;100.00
36748;BME280;22716;51.556;5.080;2023-08-17T04:59:36;101267.69;;;17.99;100.00
36748;BME280;22716;51.556;5.080;2023-08-17T05:02:05;101266.81;;;17.99;100.00
36748;BME280;22716;51.556;5.080;2023-08-17T05:04:35;101269.50;;;17.97;100.00
36748;BME280;22716;51.556;5.080;2023-08-17T05:07:08;101262.50;;;17.95;100.00
36748;BME280;22716;51.556;5.080;2023-08-17T05:09:36;101264.25;;;17.96;100.00
36748;BME280;22716;51.556;5.080;2023-08-17T05:12:06;101266.91;;;17.96;100.00
36748;BME280;22716;51.556;5.080;2023-08-17T05:14:35;101257.88;;;18.01;100.00
36748;BME280;22716;51.556;5.080;2023-08-17T05:17:03;101263.00;;;18.06;100.00
36748;BME280;22716;51.556;5.080;2023-08-17T05:19:32;101259.66;;;18.01;100.00
36748;BME280;22716;51.556;5.080;2023-08-17T05:22:00;101267.47;;;18.05;100.00
36748;BME280;22716;51.556;5.080;2023-08-17T05:24:31;101273.50;;;18.09;100.00
36748;BME280;22716;51.556;5.080;2023-08-17T05:27:00;101266.59;;;18.05;100.00
36748;BME280;22716;51.556;5.080;2023-08-17T05:29:28;101263.50;;;17.92;100.00
36748;BME280;22716;51.556;5.080;2023-08-17T05:31:57;101255.59;;;17.90;100.00
36748;BME280;22716;51.556;5.080;2023-08-17T05:34:26;101268.59;;;17.98;100.00
36748;BME280;22716;51.556;5.080;2023-08-17T05:36:55;101245.84;;;17.91;100.00
36748;BME280;22716;51.556;5.080;2023-08-17T05:39:23;101266.94;;;17.94;100.00
36748;BME280;22716;51.556;5.080;2023-08-17T05:41:54;101259.06;;;17.92;100.00
36748;BME280;22716;51.556;5.080;2023-08-17T05:44:23;101257.38;;;17.90;100.00
36748;BME280;22716;51.556;5.080;2023-08-17T05:46:51;101267.00;;;17.92;100.00
36748;BME280;22716;51.556;5.080;2023-08-17T05:49:20;101274.09;;;17.92;100.00
36748;BME280;22716;51.556;5.080;2023-08-17T05:51:48;101273.19;;;17.93;100.00
36748;BME280;22716;51.556;5.080;2023-08-17T05:54:17;101276.75;;;17.92;100.00
36748;BME280;22716;51.556;5.080;2023-08-17T05:56:45;101280.28;;;17.92;100.00
36748;BME280;22716;51.556;5.080;2023-08-17T05:59:17;101267.13;;;17.89;100.00
36748;BME280;22716;51.556;5.080;2023-08-17T06:01:45;101278.19;;;18.02;100.00
36748;BME280;22716;51.556;5.080;2023-08-17T06:04:14;101287.84;;;18.03;100.00
36748;BME280;22716;51.556;5.080;2023-08-17T06:06:43;101281.53;;;18.07;100.00
36748;BME280;22716;51.556;5.080;2023-08-17T06:09:11;101284.06;;;18.10;100.00
36748;BME280;22716;51.556;5.080;2023-08-17T06:11:40;101284.78;;;18.15;100.00
36748;BME280;22716;51.556;5.080;2023-08-17T06:14:09;101292.41;;;18.24;100.00
36748;BME280;22716;51.556;5.080;2023-08-17T06:16:40;101294.19;;;18.24;100.00
36748;BME280;22716;51.556;5.080;2023-08-17T06:19:09;101294.19;;;18.24;100.00
36748;BME280;22716;51.556;5.080;2023-08-17T06:21:37;101287.03;;;18.26;100.00
36748;BME280;22716;51.556;5.080;2023-08-17T06:24:06;101284.19;;;18.32;100.00
36748;BME280;22716;51.556;5.080;2023-08-17T06:26:34;101285.66;;;18.40;100.00
36748;BME280;22716;51.556;5.080;2023-08-17T06:29:03;101286.63;;;18.38;100.00
36748;BME280;22716;51.556;5.080;2023-08-17T06:31:32;101288.19;;;18.43;100.00
36748;BME280;22716;51.556;5.080;2023-08-17T06:34:03;101297.59;;;18.54;100.00
36748;BME280;22716;51.556;5.080;2023-08-17T06:36:32;101293.97;;;18.56;100.00
36748;BME280;22716;51.556;5.080;2023-08-17T06:39:01;101285.13;;;18.56;100.00
36748;BME280;22716;51.556;5.080;2023-08-17T06:41:30;101296.81;;;18.75;100.00
36748;BME280;22716;51.556;5.080;2023-08-17T06:43:58;101291.44;;;18.76;100.00
36748;BME280;22716;51.556;5.080;2023-08-17T06:46:27;101297.63;;;18.77;100.00
36748;BME280;22716;51.556;5.080;2023-08-17T06:48:56;101295.75;;;18.79;100.00
36748;BME280;22716;51.556;5.080;2023-08-17T06:51:27;101304.72;;;18.76;100.00
36748;BME280;22716;51.556;5.080;2023-08-17T06:53:55;101311.47;;;18.85;100.00
36748;BME280;22716;51.556;5.080;2023-08-17T06:56:24;101308.78;;;18.86;100.00
36748;BME280;22716;51.556;5.080;2023-08-17T06:58:52;101304.94;;;18.93;100.00
36748;BME280;22716;51.556;5.080;2023-08-17T07:01:21;101302.69;;;19.06;100.00
36748;BME280;22716;51.556;5.080;2023-08-17T07:03:50;101305.13;;;19.12;100.00
36748;BME280;22716;51.556;5.080;2023-08-17T07:06:18;101294.69;;;19.08;100.00
36748;BME280;22716;51.556;5.080;2023-08-17T07:08:50;101300.22;;;19.25;100.00
36748;BME280;22716;51.556;5.080;2023-08-17T07:11:19;101309.28;;;19.42;100.00
36748;BME280;22716;51.556;5.080;2023-08-17T07:13:48;101304.72;;;19.68;100.00
36748;BME280;22716;51.556;5.080;2023-08-17T07:16:16;101298.41;;;19.70;100.00
36748;BME280;22716;51.556;5.080;2023-08-17T07:18:45;101292.84;;;19.76;100.00
36748;BME280;22716;51.556;5.080;2023-08-17T07:21:13;101293.19;;;19.89;100.00
36748;BME280;22716;51.556;5.080;2023-08-17T07:23:44;101294.56;;;19.99;100.00
36748;BME280;22716;51.556;5.080;2023-08-17T07:26:16;101290.94;;;20.00;100.00
36748;BME280;22716;51.556;5.080;2023-08-17T07:28:45;101278.91;;;20.11;100.00
36748;BME280;22716;51.556;5.080;2023-08-17T07:31:13;101286.47;;;20.22;100.00
36748;BME280;22716;51.556;5.080;2023-08-17T07:33:42;101273.72;;;20.30;100.00
36748;BME280;22716;51.556;5.080;2023-08-17T07:36:10;101287.03;;;20.30;100.00
36748;BME280;22716;51.556;5.080;2023-08-17T07:38:39;101305.69;;;20.29;100.00
36748;BME280;22716;51.556;5.080;2023-08-17T07:41:07;101294.22;;;20.28;100.00
36748;BME280;22716;51.556;5.080;2023-08-17T07:43:38;101301.31;;;20.28;100.00
36748;BME280;22716;51.556;5.080;2023-08-17T07:46:07;101306.94;;;20.20;100.00
36748;BME280;22716;51.556;5.080;2023-08-17T07:48:35;101298.41;;;20.12;100.00
36748;BME280;22716;51.556;5.080;2023-08-17T07:51:04;101315.56;;;20.05;100.00
36748;BME280;22716;51.556;5.080;2023-08-17T07:53:33;101316.50;;;20.04;100.00
36748;BME280;22716;51.556;5.080;2023-08-17T07:56:01;101319.41;;;19.98;100.00
36748;BME280;22716;51.556;5.080;2023-08-17T07:58:30;101314.09;;;19.98;100.00
36748;BME280;22716;51.556;5.080;2023-08-17T08:01:01;101308.31;;;20.08;100.00
36748;BME280;22716;51.556;5.080;2023-08-17T08:03:30;101304.91;;;20.05;100.00
36748;BME280;22716;51.556;5.080;2023-08-17T08:05:58;101309.13;;;20.10;100.00
36748;BME280;22716;51.556;5.080;2023-08-17T08:08:27;101307.88;;;20.19;100.00
36748;BME280;22716;51.556;5.080;2023-08-17T08:10:55;101300.69;;;20.21;100.00
36748;BME280;22716;51.556;5.080;2023-08-17T08:13:24;101310.97;;;20.30;100.00
36748;BME280;22716;51.556;5.080;2023-08-17T08:15:52;101314.56;;;20.29;100.00
36748;BME280;22716;51.556;5.080;2023-08-17T08:18:24;101314.50;;;20.31;100.00
36748;BME280;22716;51.556;5.080;2023-08-17T08:20:52;101299.59;;;20.27;100.00
36748;BME280;22716;51.556;5.080;2023-08-17T08:23:21;101315.91;;;20.39;100.00
36748;BME280;22716;51.556;5.080;2023-08-17T08:25:49;101316.38;;;20.49;100.00
36748;BME280;22716;51.556;5.080;2023-08-17T08:28:18;101305.56;;;20.52;100.00
36748;BME280;22716;51.556;5.080;2023-08-17T08:30:46;101303.56;;;20.57;100.00
36748;BME280;22716;51.556;5.080;2023-08-17T08:33:15;101300.59;;;20.44;100.00
36748;BME280;22716;51.556;5.080;2023-08-17T08:35:46;101303.25;;;20.44;100.00
36748;BME280;22716;51.556;5.080;2023-08-17T08:38:15;101293.13;;;20.32;100.00
36748;BME280;22716;51.556;5.080;2023-08-17T08:40:44;101298.19;;;20.38;100.00
36748;BME280;22716;51.556;5.080;2023-08-17T08:43:15;101290.59;;;20.29;100.00
36748;BME280;22716;51.556;5.080;2023-08-17T08:45:44;101287.16;;;20.27;100.00
36748;BME280;22716;51.556;5.080;2023-08-17T08:48:15;101293.13;;;20.32;100.00
36748;BME280;22716;51.556;5.080;2023-08-17T08:50:50;101281.88;;;20.26;100.00
36748;BME280;22716;51.556;5.080;2023-08-17T08:53:21;101292.47;;;20.27;100.00
36748;BME280;22716;51.556;5.080;2023-08-17T08:55:58;101278.78;;;20.14;100.00
36748;BME280;22716;51.556;5.080;2023-08-17T08:58:27;101288.69;;;20.33;100.00
36748;BME280;22716;51.556;5.080;2023-08-17T09:00:58;101291.13;;;20.37;100.00
36748;BME280;22716;51.556;5.080;2023-08-17T09:03:28;101290.03;;;20.21;100.00
36748;BME280;22716;51.556;5.080;2023-08-17T09:06:01;101293.22;;;20.09;100.00
36748;BME280;22716;51.556;5.080;2023-08-17T09:08:30;101289.50;;;20.13;100.00
36748;BME280;22716;51.556;5.080;2023-08-17T09:10:59;101285.78;;;20.17;100.00
36748;BME280;22716;51.556;5.080;2023-08-17T09:13:28;101285.97;;;20.12;100.00
36748;BME280;22716;51.556;5.080;2023-08-17T09:15:58;101286.59;;;20.19;100.00
36748;BME280;22716;51.556;5.080;2023-08-17T09:18:27;101280.78;;;20.09;100.00
36748;BME280;22716;51.556;5.080;2023-08-17T09:20:56;101273.81;;;20.07;100.00
36748;BME280;22716;51.556;5.080;2023-08-17T09:23:27;101267.53;;;20.08;100.00
36748;BME280;22716;51.556;5.080;2023-08-17T09:25:56;101260.38;;;20.10;100.00
36748;BME280;22716;51.556;5.080;2023-08-17T09:28:26;101270.94;;;20.11;100.00
36748;BME280;22716;51.556;5.080;2023-08-17T09:30:56;101271.03;;;20.10;100.00
36748;BME280;22716;51.556;5.080;2023-08-17T09:33:26;101271.75;;;20.13;100.00
36748;BME280;22716;51.556;5.080;2023-08-17T09:35:56;101275.81;;;20.22;100.00
36748;BME280;22716;51.556;5.080;2023-08-17T09:38:28;101267.09;;;20.19;100.00
36748;BME280;22716;51.556;5.080;2023-08-17T09:40:58;101266.34;;;20.15;100.00
36748;BME280;22716;51.556;5.080;2023-08-17T09:43:27;101255.84;;;20.12;100.00
36748;BME280;22716;51.556;5.080;2023-08-17T09:45:58;101260.44;;;20.08;100.00
36748;BME280;22716;51.556;5.080;2023-08-17T09:48:27;101268.97;;;20.17;100.00
36748;BME280;22716;51.556;5.080;2023-08-17T09:50:57;101273.59;;;20.11;100.00
36748;BME280;22716;51.556;5.080;2023-08-17T09:53:34;101270.41;;;20.03;100.00
36748;BME280;22716;51.556;5.080;2023-08-17T09:56:06;101259.97;;;19.99;100.00
36748;BME280;22716;51.556;5.080;2023-08-17T09:58:36;101272.34;;;20.00;100.00
36748;BME280;22716;51.556;5.080;2023-08-17T10:01:05;101260.91;;;19.98;100.00
36748;BME280;22716;51.556;5.080;2023-08-17T10:03:35;101256.84;;;19.89;100.00
36748;BME280;22716;51.556;5.080;2023-08-17T10:06:10;101255.75;;;19.93;100.00
36748;BME280;22716;51.556;5.080;2023-08-17T10:08:47;101243.41;;;19.92;100.00
36748;BME280;22716;51.556;5.080;2023-08-17T10:11:19;101260.91;;;19.98;100.00
36748;BME280;22716;51.556;5.080;2023-08-17T10:13:51;101255.97;;;20.09;100.00
36748;BME280;22716;51.556;5.080;2023-08-17T10:16:23;101261.97;;;20.14;100.00
36748;BME280;22716;51.556;5.080;2023-08-17T10:18:54;101249.75;;;20.10;100.00
36748;BME280;22716;51.556;5.080;2023-08-17T10:21:28;101265.34;;;20.18;100.00
36748;BME280;22716;51.556;5.080;2023-08-17T10:24:02;101257.25;;;20.21;100.00
36748;BME280;22716;51.556;5.080;2023-08-17T10:26:31;101248.38;;;20.20;100.00
36748;BME280;22716;51.556;5.080;2023-08-17T10:29:02;101242.16;;;20.21;100.00
36748;BME280;22716;51.556;5.080;2023-08-17T10:31:34;101236.81;;;20.21;100.00
36748;BME280;22716;51.556;5.080;2023-08-17T10:34:03;101248.22;;;20.25;100.00
36748;BME280;22716;51.556;5.080;2023-08-17T10:36:33;101250.00;;;20.24;100.00
36748;BME280;22716;51.556;5.080;2023-08-17T10:39:21;101257.88;;;20.27;100.00
36748;BME280;22716;51.556;5.080;2023-08-17T10:41:51;101247.16;;;20.29;100.00
36748;BME280;22716;51.556;5.080;2023-08-17T10:44:39;101247.06;;;20.50;100.00
36748;BME280;22716;51.556;5.080;2023-08-17T10:47:21;101239.59;;;20.58;100.00
36748;BME280;22716;51.556;5.080;2023-08-17T10:49:51;101248.31;;;20.62;100.00
36748;BME280;22716;51.556;5.080;2023-08-17T10:52:29;101249.47;;;20.56;100.00
36748;BME280;22716;51.556;5.080;2023-08-17T10:55:06;101251.41;;;20.53;100.00
36748;BME280;22716;51.556;5.080;2023-08-17T10:57:36;101251.47;;;20.51;100.00
36748;BME280;22716;51.556;5.080;2023-08-17T11:00:13;101250.53;;;20.52;100.00
36748;BME280;22716;51.556;5.080;2023-08-17T11:02:45;101250.66;;;20.49;100.00
36748;BME280;22716;51.556;5.080;2023-08-17T11:05:14;101249.88;;;20.47;100.00
36748;BME280;22716;51.556;5.080;2023-08-17T11:07:43;101245.56;;;20.45;100.00
36748;BME280;22716;51.556;5.080;2023-08-17T11:10:31;101216.41;;;20.22;100.00
36748;BME280;22716;51.556;5.080;2023-08-17T11:13:00;101210.75;;;20.09;100.00
36748;BME280;22716;51.556;5.080;2023-08-17T11:15:37;101249.38;;;20.39;100.00
36748;BME280;22716;51.556;5.080;2023-08-17T11:18:08;101252.94;;;20.38;100.00
36748;BME280;22716;51.556;5.080;2023-08-17T11:20:39;101258.09;;;20.43;100.00
36748;BME280;22716;51.556;5.080;2023-08-17T11:23:09;101257.13;;;20.44;100.00
36748;BME280;22716;51.556;5.080;2023-08-17T11:25:41;101246.28;;;20.48;100.00
36748;BME280;22716;51.556;5.080;2023-08-17T11:28:10;101254.50;;;20.62;100.00
36748;BME280;22716;51.556;5.080;2023-08-17T11:30:40;101259.97;;;20.59;100.00
36748;BME280;22716;51.556;5.080;2023-08-17T11:33:09;101235.91;;;20.42;100.00
36748;BME280;22716;51.556;5.080;2023-08-17T11:35:38;101248.72;;;20.34;100.00
36748;BME280;22716;51.556;5.080;2023-08-17T11:38:07;101256.53;;;20.37;100.00
36748;BME280;22716;51.556;5.080;2023-08-17T11:40:36;101257.47;;;20.36;100.00
36748;BME280;22716;51.556;5.080;2023-08-17T11:43:07;101237.50;;;20.26;100.00
36748;BME280;22716;51.556;5.080;2023-08-17T11:45:37;101263.72;;;20.35;100.00
36748;BME280;22716;51.556;5.080;2023-08-17T11:48:05;101252.16;;;20.36;100.00
36748;BME280;22716;51.556;5.080;2023-08-17T11:50:35;101250.28;;;20.38;100.00
36748;BME280;22716;51.556;5.080;2023-08-17T11:53:03;101258.34;;;20.37;100.00
36748;BME280;22716;51.556;5.080;2023-08-17T11:55:33;101248.97;;;20.28;100.00
36748;BME280;22716;51.556;5.080;2023-08-17T11:58:02;101244.34;;;20.32;100.00
36748;BME280;22716;51.556;5.080;2023-08-17T12:00:40;101249.88;;;20.47;100.00
36748;BME280;22716;51.556;5.080;2023-08-17T12:03:13;101244.50;;;20.49;100.00
36748;BME280;22716;51.556;5.080;2023-08-17T12:05:44;101249.47;;;20.56;100.00
36748;BME280;22716;51.556;5.080;2023-08-17T12:08:14;101245.47;;;20.46;100.00
36748;BME280;22716;51.556;5.080;2023-08-17T12:10:44;101228.47;;;20.30;100.00
36748;BME280;22716;51.556;5.080;2023-08-17T12:13:14;101249.13;;;20.44;100.00
36748;BME280;22716;51.556;5.080;2023-08-17T12:15:45;101248.22;;;20.45;100.00
36748;BME280;22716;51.556;5.080;2023-08-17T12:18:15;101255.41;;;20.43;100.00
36748;BME280;22716;51.556;5.080;2023-08-17T12:20:52;101250.09;;;20.43;100.00
36748;BME280;22716;51.556;5.080;2023-08-17T12:23:21;101252.94;;;20.38;100.00
36748;BME280;22716;51.556;5.080;2023-08-17T12:25:54;101240.50;;;20.39;100.00
36748;BME280;22716;51.556;5.080;2023-08-17T12:28:23;101242.38;;;20.37;100.00
36748;BME280;22716;51.556;5.080;2023-08-17T12:31:02;101251.06;;;20.40;100.00
36748;BME280;22716;51.556;5.080;2023-08-17T12:33:31;101243.16;;;20.39;100.00
36748;BME280;22716;51.556;5.080;2023-08-17T12:36:00;101236.31;;;20.33;100.00
36748;BME280;22716;51.556;5.080;2023-08-17T12:38:29;101238.25;;;20.30;100.00
36748;BME280;22716;51.556;5.080;2023-08-17T12:40:58;101236.94;;;20.40;100.00
36748;BME280;22716;51.556;5.080;2023-08-17T12:43:26;101247.22;;;20.47;100.00
36748;BME280;22716;51.556;5.080;2023-08-17T12:45:55;101249.50;;;20.55;100.00
36748;BME280;22716;51.556;5.080;2023-08-17T12:48:26;101242.53;;;20.52;100.00
36748;BME280;22716;51.556;5.080;2023-08-17T12:50:55;101256.94;;;20.48;100.00
36748;BME280;22716;51.556;5.080;2023-08-17T12:53:23;101255.19;;;20.47;100.00